Time;durP1;ratioP1;P1;durP2;ratioP2;P2;SDS_P1;SDS_P2;PMS_P1;PMS_P2;Temp;Humidity;BMP_temperature;BMP_pressure;BME280_temperature;BME280_humidity;BME280_pressure;Samples;Min_cycle;Max_cycle;Signal;HPM_P1;HPM_P2
2021/03/19 00:01:46;;;;;;;12.35;8.88;;;4.10;99.90;;;;;;5095537;28;20023;-75
2021/03/19 00:04:12;;;;;;;12.13;9.52;;;4.10;99.90;;;;;;5099802;28;20043;-72
2021/03/19 00:06:38;;;;;;;14.13;9.43;;;4.10;99.90;;;;;;5100400;28;20032;-73
2021/03/19 00:09:07;;;;;;;13.93;8.77;;;4.10;99.90;;;;;;5101478;28;20020;-73
2021/03/19 00:11:35;;;;;;;10.00;7.63;;;4.00;99.90;;;;;;5085789;28;20111;-74
2021/03/19 00:14:01;;;;;;;9.00;6.30;;;4.00;99.90;;;;;;5094523;28;20028;-72
2021/03/19 00:16:27;;;;;;;7.18;5.40;;;4.00;99.90;;;;;;5094525;28;20039;-73
2021/03/19 00:18:53;;;;;;;6.90;6.05;;;4.00;99.90;;;;;;5095267;28;20020;-72
2021/03/19 00:21:18;;;;;;;8.00;5.80;;;4.10;99.90;;;;;;5094299;28;20097;-72
2021/03/19 00:23:44;;;;;;;6.13;5.07;;;4.20;99.90;;;;;;5095659;28;20055;-72
2021/03/19 00:26:10;;;;;;;8.98;5.88;;;4.20;99.90;;;;;;5094075;28;20020;-71
2021/03/19 00:28:36;;;;;;;9.18;6.15;;;4.30;99.90;;;;;;5095308;28;20394;-74
2021/03/19 00:31:02;;;;;;;7.45;5.90;;;4.30;99.90;;;;;;5092101;28;20043;-72
2021/03/19 00:33:28;;;;;;;8.35;6.60;;;4.30;99.90;;;;;;5089706;28;20050;-72
2021/03/19 00:35:53;;;;;;;8.57;7.10;;;4.30;99.90;;;;;;5088826;28;20081;-73
2021/03/19 00:38:19;;;;;;;10.57;7.28;;;4.30;99.90;;;;;;5090329;28;20117;-73
2021/03/19 00:40:45;;;;;;;13.18;7.80;;;4.20;99.90;;;;;;5085493;28;20043;-72
2021/03/19 00:43:13;;;;;;;9.15;8.30;;;4.20;99.90;;;;;;5083345;28;20021;-73
2021/03/19 00:45:39;;;;;;;9.77;7.45;;;4.10;99.90;;;;;;5088295;28;20024;-74
2021/03/19 00:48:05;;;;;;;7.85;7.00;;;4.10;99.90;;;;;;5093200;28;20028;-73
2021/03/19 00:50:34;;;;;;;8.98;7.35;;;4.10;99.90;;;;;;5093088;28;20063;-73
2021/03/19 00:53:01;;;;;;;8.52;7.20;;;4.10;99.90;;;;;;5092477;28;20045;-72
2021/03/19 00:55:27;;;;;;;7.43;6.65;;;4.00;99.90;;;;;;5092939;28;20031;-72
2021/03/19 00:57:53;;;;;;;8.63;6.88;;;3.90;99.90;;;;;;5090625;28;20035;-73
2021/03/19 01:00:21;;;;;;;8.13;7.32;;;3.90;99.90;;;;;;5092885;28;20025;-73
2021/03/19 01:02:46;;;;;;;10.10;7.72;;;3.80;99.90;;;;;;5093362;28;20023;-72
2021/03/19 01:05:21;;;;;;;10.75;7.18;;;3.70;99.90;;;;;;5092866;28;20475;-73
2021/03/19 01:07:47;;;;;;;8.10;6.78;;;3.90;99.90;;;;;;5092851;28;20027;-73
2021/03/19 01:10:21;;;;;;;7.85;7.05;;;3.90;99.90;;;;;;5093631;28;20106;-72
2021/03/19 01:12:47;;;;;;;8.90;7.97;;;3.90;99.90;;;;;;5086025;28;20536;-74
2021/03/19 01:15:13;;;;;;;10.48;7.25;;;3.80;99.90;;;;;;5093388;28;20024;-74
2021/03/19 01:17:39;;;;;;;8.15;7.20;;;3.90;99.90;;;;;;5090082;28;20035;-74
2021/03/19 01:20:09;;;;;;;9.82;8.25;;;3.80;99.90;;;;;;5091187;28;20032;-74
2021/03/19 01:22:34;;;;;;;9.75;8.02;;;3.70;99.90;;;;;;5091651;28;20081;-74
2021/03/19 01:25:00;;;;;;;11.85;8.57;;;3.60;99.90;;;;;;5095056;28;20020;-74
2021/03/19 01:27:26;;;;;;;8.15;7.32;;;3.50;99.90;;;;;;5092970;28;20020;-73
2021/03/19 01:29:52;;;;;;;10.95;7.40;;;3.40;99.90;;;;;;5093022;28;20081;-72
2021/03/19 01:32:17;;;;;;;8.82;6.53;;;3.40;99.90;;;;;;5091335;28;20044;-73
2021/03/19 01:34:43;;;;;;;8.10;5.95;;;3.40;99.90;;;;;;5088583;28;20041;-73
2021/03/19 01:37:09;;;;;;;10.77;5.95;;;3.30;99.90;;;;;;5082909;28;20051;-73
2021/03/19 01:39:35;;;;;;;8.02;6.68;;;3.30;99.90;;;;;;5095683;28;20208;-73
2021/03/19 01:42:03;;;;;;;10.48;7.75;;;3.30;99.90;;;;;;5089420;28;20117;-73
2021/03/19 01:44:53;;;;;;;9.65;6.85;;;3.20;99.90;;;;;;5087910;28;20035;-71
2021/03/19 01:47:56;;;;;;;9.57;8.02;;;3.20;99.90;;;;;;5092612;28;20066;-73
2021/03/19 01:50:59;;;;;;;7.95;6.90;;;3.30;99.90;;;;;;5084295;28;20043;-73
2021/03/19 01:54:02;;;;;;;9.55;7.15;;;3.30;99.90;;;;;;5084376;28;20113;-72
2021/03/19 01:57:22;;;;;;;8.75;6.72;;;3.30;99.90;;;;;;5079547;28;20063;-73
2021/03/19 02:00:25;;;;;;;11.68;7.72;;;3.30;99.90;;;;;;5050087;28;20036;-74
2021/03/19 02:03:28;;;;;;;8.25;7.25;;;3.30;99.90;;;;;;5085802;28;20077;-74
2021/03/19 02:06:31;;;;;;;6.95;5.88;;;3.20;99.90;;;;;;5089655;28;20016;-74
2021/03/19 02:09:34;;;;;;;8.77;6.60;;;3.20;99.90;;;;;;5082358;28;20050;-74
2021/03/19 02:12:38;;;;;;;9.43;7.35;;;3.20;99.90;;;;;;5087470;28;20252;-71
2021/03/19 02:15:41;;;;;;;7.95;6.53;;;3.20;99.90;;;;;;5091639;28;20020;-72
2021/03/19 02:18:44;;;;;;;8.43;6.55;;;3.20;99.90;;;;;;5091435;28;20028;-73
2021/03/19 02:21:47;;;;;;;6.95;6.25;;;3.20;99.90;;;;;;5088044;28;20483;-72
2021/03/19 02:24:51;;;;;;;10.48;7.07;;;3.10;99.90;;;;;;5083082;28;20024;-72
2021/03/19 02:27:54;;;;;;;9.13;7.38;;;3.10;99.90;;;;;;5089956;28;20027;-73
2021/03/19 02:30:56;;;;;;;10.93;7.57;;;3.10;99.90;;;;;;5090639;28;20024;-72
2021/03/19 02:33:22;;;;;;;;;;;3.10;99.90;;;;;;5091594;28;20063;-73
2021/03/19 02:35:55;;;;;;;8.98;7.15;;;3.10;99.90;;;;;;5082075;28;19944;-72
2021/03/19 02:38:22;;;;;;;8.05;7.25;;;3.10;99.90;;;;;;5094047;28;20129;-72
2021/03/19 02:40:48;;;;;;;9.23;7.50;;;3.00;99.90;;;;;;5094415;28;20510;-72
2021/03/19 02:43:16;;;;;;;10.25;6.85;;;3.00;99.90;;;;;;5095807;28;20394;-71
2021/03/19 02:45:42;;;;;;;8.63;6.50;;;3.10;99.90;;;;;;5089604;28;20031;-72
2021/03/19 02:48:09;;;;;;;7.60;6.13;;;3.10;99.90;;;;;;5087825;28;20028;-71
2021/03/19 02:50:35;;;;;;;10.70;7.88;;;3.10;99.90;;;;;;5090299;28;20057;-74
2021/03/19 02:53:01;;;;;;;10.05;6.55;;;3.10;99.90;;;;;;5092781;28;20020;-73
2021/03/19 02:55:27;;;;;;;10.43;6.95;;;3.10;99.90;;;;;;5087065;28;20021;-73
2021/03/19 02:57:53;;;;;;;9.50;6.78;;;3.10;99.90;;;;;;5092414;28;20046;-73
2021/03/19 03:00:23;;;;;;;7.40;5.47;;;3.10;99.90;;;;;;5090751;28;20043;-72
2021/03/19 03:02:49;;;;;;;7.13;6.07;;;3.20;99.90;;;;;;5094288;28;20382;-71
2021/03/19 03:05:16;;;;;;;7.28;6.55;;;3.20;99.90;;;;;;5094622;28;20081;-72
2021/03/19 03:07:42;;;;;;;7.80;6.47;;;3.10;99.90;;;;;;5094844;28;20016;-73
2021/03/19 03:10:11;;;;;;;6.85;5.20;;;3.20;99.90;;;;;;5095110;28;20039;-73
2021/03/19 03:12:37;;;;;;;8.63;6.07;;;3.20;99.90;;;;;;5095104;28;20051;-72
2021/03/19 03:15:07;;;;;;;9.55;5.93;;;3.10;99.90;;;;;;5095473;28;20039;-72
2021/03/19 03:17:33;;;;;;;12.95;5.72;;;3.10;99.90;;;;;;5095654;28;20025;-73
2021/03/19 03:19:59;;;;;;;8.10;6.30;;;3.30;99.90;;;;;;5095755;28;20039;-73
2021/03/19 03:22:24;;;;;;;6.78;6.07;;;3.30;99.90;;;;;;5095162;28;20016;-73
2021/03/19 03:24:50;;;;;;;5.07;4.55;;;3.30;99.90;;;;;;5095352;28;20047;-73
2021/03/19 03:27:16;;;;;;;9.73;6.57;;;3.30;99.90;;;;;;5103083;28;20016;-74
2021/03/19 03:29:42;;;;;;;6.35;5.40;;;3.30;99.90;;;;;;5101681;28;20024;-72
2021/03/19 03:32:08;;;;;;;10.55;5.97;;;3.40;99.90;;;;;;5097944;28;20020;-72
2021/03/19 03:34:34;;;;;;;9.32;5.85;;;3.30;99.90;;;;;;5090475;28;20728;-71
2021/03/19 03:37:01;;;;;;;6.43;5.72;;;3.40;99.90;;;;;;5087800;28;20360;-72
2021/03/19 03:39:29;;;;;;;6.32;5.43;;;3.30;99.90;;;;;;5084103;28;20067;-73
2021/03/19 03:41:57;;;;;;;9.68;6.13;;;3.40;99.90;;;;;;5092204;28;20024;-73
2021/03/19 03:44:24;;;;;;;8.48;5.80;;;3.40;99.90;;;;;;5087705;28;20399;-73
2021/03/19 03:46:50;;;;;;;5.88;4.80;;;3.40;99.90;;;;;;5097014;28;20020;-73
2021/03/19 03:49:17;;;;;;;6.15;5.50;;;3.40;99.90;;;;;;5096113;28;20016;-72
2021/03/19 03:51:43;;;;;;;7.78;5.80;;;3.40;99.90;;;;;;5090607;28;20066;-71
2021/03/19 03:54:09;;;;;;;8.25;5.68;;;3.40;99.90;;;;;;5082345;28;20047;-74
2021/03/19 03:56:36;;;;;;;8.95;5.97;;;3.40;99.90;;;;;;5089665;28;20026;-73
2021/03/19 03:59:05;;;;;;;6.28;5.38;;;3.40;99.90;;;;;;5090509;28;20024;-74
2021/03/19 04:01:30;;;;;;;7.70;5.65;;;3.40;99.90;;;;;;5093086;28;20136;-73
2021/03/19 04:03:56;;;;;;;8.35;6.05;;;3.40;99.90;;;;;;5094955;28;20447;-73
2021/03/19 04:06:22;;;;;;;6.38;5.63;;;3.30;99.90;;;;;;5093724;28;20137;-73
2021/03/19 04:08:48;;;;;;;6.90;5.78;;;3.30;99.90;;;;;;5089431;28;20024;-73
2021/03/19 04:11:17;;;;;;;7.30;6.10;;;3.30;99.90;;;;;;5092432;28;20040;-73
2021/03/19 04:13:43;;;;;;;7.22;5.65;;;3.20;99.90;;;;;;5093383;28;20390;-73
2021/03/19 04:16:13;;;;;;;6.95;5.60;;;3.30;99.90;;;;;;5094535;28;20020;-73
2021/03/19 04:18:39;;;;;;;8.35;6.53;;;3.30;99.90;;;;;;5089467;28;20487;-74
2021/03/19 04:21:08;;;;;;;9.95;6.68;;;3.30;99.90;;;;;;5090901;28;20063;-72
2021/03/19 04:23:37;;;;;;;7.50;6.28;;;3.40;99.90;;;;;;5081032;28;20024;-73
2021/03/19 04:26:04;;;;;;;7.72;6.03;;;3.50;99.90;;;;;;5091556;28;20102;-72
2021/03/19 04:28:37;;;;;;;8.50;6.20;;;3.50;99.90;;;;;;5093699;28;20013;-72
2021/03/19 04:31:05;;;;;;;7.43;5.47;;;3.50;99.90;;;;;;5093166;28;20027;-73
2021/03/19 04:33:32;;;;;;;7.82;5.07;;;3.60;99.90;;;;;;5077910;28;20511;-74
2021/03/19 04:36:19;;;;;;;5.80;5.13;;;3.60;99.90;;;;;;5083579;28;20051;-73
2021/03/19 04:38:45;;;;;;;6.80;5.95;;;3.60;99.90;;;;;;5089110;28;20020;-74
2021/03/19 04:41:12;;;;;;;8.73;5.68;;;3.60;99.90;;;;;;5092190;28;20016;-74
2021/03/19 04:43:37;;;;;;;10.27;6.28;;;3.60;99.90;;;;;;5085482;28;20028;-73
2021/03/19 04:46:03;;;;;;;11.40;5.72;;;3.60;99.90;;;;;;5090587;28;20032;-75
2021/03/19 04:48:29;;;;;;;7.30;5.68;;;3.50;99.90;;;;;;5092388;28;20047;-73
2021/03/19 04:50:55;;;;;;;5.88;4.72;;;3.60;99.90;;;;;;5091468;28;20040;-73
2021/03/19 04:53:21;;;;;;;6.80;5.93;;;3.50;99.90;;;;;;5085524;28;20031;-73
2021/03/19 04:55:46;;;;;;;6.72;5.82;;;3.60;99.90;;;;;;5086217;28;20027;-74
2021/03/19 04:58:12;;;;;;;5.40;4.72;;;3.60;99.90;;;;;;5086607;28;20020;-72
2021/03/19 05:00:38;;;;;;;7.25;5.63;;;3.60;99.90;;;;;;5087716;28;20093;-74
2021/03/19 05:03:04;;;;;;;9.88;5.78;;;3.70;99.90;;;;;;5092981;28;20020;-74
2021/03/19 05:05:32;;;;;;;7.18;5.55;;;3.60;99.90;;;;;;5091135;28;20032;-72
2021/03/19 05:07:59;;;;;;;7.97;5.85;;;3.70;99.90;;;;;;5085303;28;20074;-73
2021/03/19 05:10:29;;;;;;;7.72;5.82;;;3.80;99.90;;;;;;5086207;28;20425;-71
2021/03/19 05:12:54;;;;;;;7.32;6.05;;;3.80;99.90;;;;;;5092636;28;20054;-72
2021/03/19 05:15:22;;;;;;;7.10;5.60;;;3.80;99.90;;;;;;5091115;28;20530;-73
2021/03/19 05:17:48;;;;;;;6.28;5.60;;;3.80;99.90;;;;;;5084099;28;20082;-74
2021/03/19 05:20:15;;;;;;;10.25;6.35;;;3.70;99.90;;;;;;5092709;28;20479;-74
2021/03/19 05:22:41;;;;;;;9.45;5.88;;;3.70;99.90;;;;;;5086879;28;20088;-73
2021/03/19 05:25:11;;;;;;;9.85;5.05;;;3.90;99.90;;;;;;5085391;28;20024;-74
2021/03/19 05:27:37;;;;;;;6.75;5.63;;;3.90;99.90;;;;;;5092282;28;20046;-73
2021/03/19 05:30:05;;;;;;;8.07;6.22;;;3.90;99.90;;;;;;5087177;28;20032;-74
2021/03/19 05:32:31;;;;;;;6.30;5.47;;;3.90;99.90;;;;;;5089998;28;20043;-73
2021/03/19 05:34:57;;;;;;;9.32;5.93;;;3.90;99.90;;;;;;5087817;28;20038;-73
2021/03/19 05:37:23;;;;;;;8.77;6.03;;;4.00;99.90;;;;;;5092468;28;20116;-74
2021/03/19 05:39:49;;;;;;;9.52;5.65;;;4.00;99.90;;;;;;5088214;28;20107;-73
2021/03/19 05:42:24;;;;;;;8.68;5.65;;;4.00;99.90;;;;;;5092371;28;20020;-75
2021/03/19 05:44:58;;;;;;;7.53;5.70;;;3.90;99.90;;;;;;5090476;28;20016;-73
2021/03/19 05:47:25;;;;;;;4.93;4.43;;;4.10;99.90;;;;;;5087126;28;20431;-74
2021/03/19 05:49:56;;;;;;;7.18;6.22;;;4.20;99.90;;;;;;5090533;28;20039;-75
2021/03/19 05:52:28;;;;;;;5.87;4.60;;;4.30;99.90;;;;;;5087567;28;20025;-73
2021/03/19 05:54:55;;;;;;;16.30;5.15;;;4.30;99.90;;;;;;5082570;28;20220;-73
2021/03/19 05:57:32;;;;;;;13.90;6.00;;;4.30;99.90;;;;;;5086473;28;20047;-73
2021/03/19 06:00:00;;;;;;;6.72;5.75;;;4.30;99.90;;;;;;5087587;28;20552;-74
2021/03/19 06:02:33;;;;;;;9.90;6.32;;;4.20;99.90;;;;;;5090364;28;20024;-73
2021/03/19 06:05:19;;;;;;;11.43;8.02;;;4.20;99.90;;;;;;5090745;28;20422;-73
2021/03/19 06:07:59;;;;;;;16.90;8.93;;;4.20;99.90;;;;;;5092278;28;20091;-72
2021/03/19 06:10:34;;;;;;;14.32;9.73;;;4.10;99.90;;;;;;5078433;28;20073;-73
2021/03/19 06:13:12;;;;;;;14.85;8.25;;;4.20;99.90;;;;;;5085670;28;20100;-74
2021/03/19 06:15:52;;;;;;;10.23;7.47;;;4.30;99.90;;;;;;5088615;28;20028;-68
2021/03/19 06:18:46;;;;;;;8.38;6.50;;;4.30;99.90;;;;;;5087339;28;20164;-71
2021/03/19 06:21:24;;;;;;;8.88;6.78;;;4.40;99.90;;;;;;5088942;28;20063;-67
2021/03/19 06:24:01;;;;;;;6.85;5.72;;;4.50;99.90;;;;;;5088865;28;20425;-68
2021/03/19 06:26:37;;;;;;;8.10;6.05;;;4.60;99.90;;;;;;5085245;28;20043;-69
2021/03/19 06:29:24;;;;;;;7.03;5.82;;;4.80;99.90;;;;;;5086948;28;20852;-72
2021/03/19 06:32:11;;;;;;;7.78;6.38;;;4.80;99.90;;;;;;5085180;28;20022;-70
2021/03/19 06:35:06;;;;;;;6.53;5.93;;;4.80;99.90;;;;;;5087533;28;20028;-68
2021/03/19 06:37:37;;;;;;;7.97;6.35;;;4.80;99.90;;;;;;5084506;28;20016;-69
2021/03/19 06:40:23;;;;;;;8.35;6.07;;;4.90;99.90;;;;;;5089309;28;20020;-69
2021/03/19 06:42:49;;;;;;;11.38;6.05;;;5.00;99.90;;;;;;5075226;28;20056;-69
2021/03/19 06:45:22;;;;;;;7.28;5.55;;;5.10;99.90;;;;;;5086834;28;20043;-68
2021/03/19 06:47:59;;;;;;;6.43;5.07;;;5.20;99.90;;;;;;5088221;28;20039;-71
2021/03/19 06:50:25;;;;;;;6.85;4.65;;;5.40;99.90;;;;;;5088889;28;20032;-69
2021/03/19 06:53:15;;;;;;;9.23;5.18;;;5.40;99.90;;;;;;5090270;28;20487;-70
2021/03/19 06:55:45;;;;;;;6.38;5.07;;;5.40;99.90;;;;;;5081915;28;20498;-71
2021/03/19 06:58:11;;;;;;;7.50;5.57;;;5.50;99.90;;;;;;5087854;28;20032;-70
2021/03/19 07:00:41;;;;;;;24.13;6.53;;;5.50;99.90;;;;;;5085843;28;20074;-69
2021/03/19 07:03:46;;;;;;;14.75;6.18;;;5.60;99.90;;;;;;5087612;28;20016;-70
2021/03/19 07:06:34;;;;;;;19.35;5.50;;;5.80;99.90;;;;;;5082881;28;20031;-71
2021/03/19 07:09:21;;;;;;;17.40;5.15;;;5.90;99.90;;;;;;5091470;28;20028;-70
2021/03/19 07:12:14;;;;;;;8.98;5.93;;;6.10;99.90;;;;;;5090545;28;20043;-71
2021/03/19 07:14:46;;;;;;;7.82;5.60;;;6.10;99.90;;;;;;5084440;28;20016;-69
2021/03/19 07:17:42;;;;;;;6.22;5.50;;;6.00;99.90;;;;;;5089466;28;20020;-70
2021/03/19 07:20:14;;;;;;;8.75;5.55;;;6.00;99.90;;;;;;5087703;28;20035;-69
2021/03/19 07:23:15;;;;;;;11.02;5.28;;;6.10;99.90;;;;;;5082221;28;20108;-70
2021/03/19 07:26:01;;;;;;;9.70;6.13;;;6.30;99.90;;;;;;5086868;28;20376;-70
2021/03/19 07:28:37;;;;;;;10.63;5.90;;;6.30;99.90;;;;;;5087834;28;20506;-68
2021/03/19 07:31:29;;;;;;;10.85;6.13;;;6.30;99.90;;;;;;5089194;28;20069;-69
2021/03/19 07:34:16;;;;;;;12.57;6.20;;;6.30;99.90;;;;;;5087610;28;20367;-69
2021/03/19 07:37:15;;;;;;;7.72;5.75;;;6.40;99.90;;;;;;5080523;28;20634;-71
2021/03/19 07:39:53;;;;;;;7.63;5.57;;;6.40;99.90;;;;;;5090020;28;20028;-69
2021/03/19 07:42:43;;;;;;;5.78;5.03;;;6.60;99.90;;;;;;5074746;28;20105;-73
2021/03/19 07:45:25;;;;;;;6.45;5.00;;;6.90;99.90;;;;;;5091509;28;20421;-74
2021/03/19 07:48:12;;;;;;;7.30;4.97;;;7.00;99.90;;;;;;5088912;28;20047;-75
2021/03/19 07:51:17;;;;;;;6.57;5.10;;;7.20;99.90;;;;;;5090855;28;20036;-68
2021/03/19 07:54:18;;;;;;;5.03;4.28;;;7.20;99.90;;;;;;5090788;28;20471;-67
2021/03/19 07:57:32;;;;;;;5.78;4.82;;;7.30;99.90;;;;;;5087307;28;20410;-69
2021/03/19 07:59:58;;;;;;;7.45;5.18;;;7.30;99.90;;;;;;5087389;28;20092;-71
2021/03/19 08:03:02;;;;;;;6.00;5.13;;;7.40;99.90;;;;;;5092286;28;20450;-71
2021/03/19 08:05:47;;;;;;;7.82;5.38;;;7.50;99.90;;;;;;5078382;28;20059;-70
2021/03/19 08:08:19;;;;;;;9.90;6.40;;;7.50;99.90;;;;;;5092250;28;20036;-68
2021/03/19 08:10:51;;;;;;;9.15;5.70;;;7.60;99.90;;;;;;5092682;28;20031;-70
2021/03/19 08:13:43;;;;;;;;;;;7.80;99.90;;;;;;5092046;28;20027;-69
2021/03/19 08:16:26;;;;;;;8.90;4.65;;;8.00;99.90;;;;;;5088399;28;19930;-70
2021/03/19 08:19:13;;;;;;;9.20;4.55;;;7.80;99.90;;;;;;5086153;28;20032;-71
2021/03/19 08:21:44;;;;;;;5.80;4.63;;;7.80;99.90;;;;;;5086060;28;20442;-71
2021/03/19 08:24:37;;;;;;;5.10;3.72;;;7.80;99.80;;;;;;5085313;28;20020;-70
2021/03/19 08:27:28;;;;;;;4.88;4.28;;;7.50;98.90;;;;;;5090543;28;20387;-71
2021/03/19 08:30:02;;;;;;;5.28;3.80;;;7.50;99.60;;;;;;5082309;28;20036;-70
2021/03/19 08:32:46;;;;;;;6.05;4.43;;;7.40;99.00;;;;;;5081225;28;20039;-70
2021/03/19 08:35:37;;;;;;;10.95;5.10;;;7.60;98.90;;;;;;5084901;28;20060;-69
2021/03/19 08:38:09;;;;;;;5.18;3.80;;;7.80;99.10;;;;;;5081937;28;20039;-71
2021/03/19 08:40:39;;;;;;;9.63;3.42;;;7.90;99.00;;;;;;5092025;28;20850;-68
2021/03/19 08:43:50;;;;;;;6.18;4.13;;;7.80;98.30;;;;;;5092157;28;20024;-69
2021/03/19 08:46:30;;;;;;;4.65;4.25;;;7.90;98.80;;;;;;5062670;28;20498;-71
2021/03/19 08:49:03;;;;;;;6.82;4.88;;;7.90;98.70;;;;;;5090647;28;20088;-70
2021/03/19 08:51:29;;;;;;;7.30;4.50;;;7.90;98.80;;;;;;5084462;28;20422;-70
2021/03/19 08:54:16;;;;;;;6.70;4.53;;;8.00;99.50;;;;;;5092992;28;20143;-69
2021/03/19 08:56:44;;;;;;;6.78;5.18;;;8.00;99.20;;;;;;5083919;28;20102;-70
2021/03/19 08:59:31;;;;;;;5.88;4.78;;;7.90;99.90;;;;;;5091603;28;20028;-69
2021/03/19 09:01:59;;;;;;;6.18;4.40;;;8.20;99.90;;;;;;5091828;28;20028;-73
2021/03/19 09:04:53;;;;;;;7.63;5.20;;;8.40;99.50;;;;;;5084814;28;20033;-70
2021/03/19 09:07:30;;;;;;;7.35;4.38;;;8.50;98.60;;;;;;5090646;28;20028;-71
2021/03/19 09:10:03;;;;;;;4.53;3.95;;;8.60;99.40;;;;;;5091099;28;20032;-70
2021/03/19 09:12:31;;;;;;;4.43;3.97;;;8.80;99.30;;;;;;5086202;28;20430;-70
2021/03/19 09:15:17;;;;;;;6.32;4.05;;;8.80;97.50;;;;;;5090447;28;20509;-69
2021/03/19 09:17:42;;;;;;;6.35;4.72;;;8.80;97.50;;;;;;5076793;28;20440;-71
2021/03/19 09:20:29;;;;;;;4.35;3.85;;;8.90;97.60;;;;;;5082777;28;20051;-70
2021/03/19 09:23:04;;;;;;;4.97;3.45;;;8.90;97.10;;;;;;5083480;28;20020;-71
2021/03/19 09:25:55;;;;;;;5.07;3.95;;;8.80;95.60;;;;;;5083482;28;20528;-71
2021/03/19 09:28:32;;;;;;;4.47;3.95;;;8.60;95.40;;;;;;5082884;28;20047;-70
2021/03/19 09:31:01;;;;;;;6.70;4.45;;;8.60;96.10;;;;;;5086006;28;20028;-71
2021/03/19 09:33:45;;;;;;;5.40;3.90;;;8.60;95.10;;;;;;5091962;28;20031;-72
2021/03/19 09:36:49;;;;;;;5.18;4.07;;;8.40;95.70;;;;;;5079747;28;20028;-71
2021/03/19 09:39:55;;;;;;;5.13;3.80;;;8.50;96.40;;;;;;5089434;28;20047;-73
2021/03/19 09:42:21;;;;;;;9.40;4.28;;;8.60;95.70;;;;;;5082654;28;20032;-69
2021/03/19 09:45:10;;;;;;;8.93;4.32;;;8.60;95.40;;;;;;5082339;28;20532;-72
2021/03/19 09:47:41;;;;;;;7.03;3.25;;;8.70;96.50;;;;;;5083792;28;20044;-70
2021/03/19 09:50:13;;;;;;;4.63;4.22;;;8.80;95.20;;;;;;5088463;28;20508;-70
2021/03/19 09:52:53;;;;;;;5.47;4.40;;;8.70;94.80;;;;;;5077264;28;20948;-71
2021/03/19 09:55:23;;;;;;;5.80;3.47;;;8.70;95.10;;;;;;5088071;28;20085;-71
2021/03/19 09:57:51;;;;;;;9.43;3.97;;;8.90;94.10;;;;;;5087627;28;20112;-72
2021/03/19 10:00:17;;;;;;;10.25;3.33;;;8.80;94.20;;;;;;5087359;28;20060;-72
2021/03/19 10:02:43;;;;;;;4.88;4.22;;;8.80;94.00;;;;;;5088850;28;20490;-71
2021/03/19 10:05:17;;;;;;;8.68;3.40;;;8.80;94.10;;;;;;5091756;28;20087;-70
2021/03/19 10:07:58;;;;;;;6.57;3.40;;;8.80;93.90;;;;;;5091629;28;20486;-69
2021/03/19 10:10:31;;;;;;;4.75;2.58;;;8.90;93.60;;;;;;5090554;28;20105;-74
2021/03/19 10:13:24;;;;;;;5.53;3.22;;;9.00;93.00;;;;;;5077953;28;20054;-69
2021/03/19 10:15:55;;;;;;;4.97;3.67;;;9.10;92.70;;;;;;5089910;28;20051;-71
2021/03/19 10:18:30;;;;;;;3.25;2.80;;;9.10;92.90;;;;;;5091955;28;20067;-70
2021/03/19 10:21:01;;;;;;;3.33;2.15;;;9.00;92.40;;;;;;5088121;28;20051;-72
2021/03/19 10:23:32;;;;;;;3.33;2.78;;;9.00;90.50;;;;;;5084908;28;20043;-70
2021/03/19 10:26:10;;;;;;;4.35;3.50;;;9.00;90.80;;;;;;5091215;28;20034;-70
2021/03/19 10:28:38;;;;;;;4.32;2.85;;;8.90;91.20;;;;;;5090055;28;20020;-70
2021/03/19 10:31:15;;;;;;;5.65;2.00;;;9.10;91.70;;;;;;5090429;28;20110;-72
2021/03/19 10:34:13;;;;;;;2.67;2.47;;;9.30;90.50;;;;;;5091539;28;20032;-73
2021/03/19 10:36:52;;;;;;;6.90;3.70;;;9.10;91.40;;;;;;5091412;28;20036;-71
2021/03/19 10:39:39;;;;;;;3.40;2.92;;;9.20;91.30;;;;;;5095225;28;20021;-70
2021/03/19 10:42:17;;;;;;;3.70;3.15;;;9.10;90.10;;;;;;5094593;28;20490;-70
2021/03/19 10:44:55;;;;;;;3.13;2.70;;;8.90;90.30;;;;;;5091933;28;20029;-70
2021/03/19 10:47:29;;;;;;;4.65;4.10;;;9.10;91.60;;;;;;5090808;28;20027;-70
2021/03/19 10:50:08;;;;;;;3.72;3.33;;;9.30;91.40;;;;;;5090576;28;20118;-71
2021/03/19 10:52:48;;;;;;;5.05;3.42;;;9.30;90.80;;;;;;5090236;28;20024;-70
2021/03/19 10:55:21;;;;;;;4.60;3.90;;;9.60;91.50;;;;;;5092018;28;20069;-71
2021/03/19 10:57:50;;;;;;;4.68;3.53;;;9.70;90.90;;;;;;5090099;28;20043;-71
2021/03/19 11:00:41;;;;;;;17.23;11.15;;;9.90;91.50;;;;;;5090966;28;20027;-70
2021/03/19 11:03:08;;;;;;;7.97;3.38;;;10.20;90.90;;;;;;5090341;28;20051;-70
2021/03/19 11:05:56;;;;;;;3.97;3.55;;;10.20;90.40;;;;;;5076431;28;20097;-68
2021/03/19 11:08:22;;;;;;;3.45;2.95;;;10.20;90.30;;;;;;5092313;28;20110;-69
2021/03/19 11:10:52;;;;;;;4.70;3.38;;;10.30;90.50;;;;;;5090382;28;20024;-71
2021/03/19 11:13:20;;;;;;;4.32;3.35;;;10.40;91.20;;;;;;5091278;28;20091;-70
2021/03/19 11:15:52;;;;;;;7.10;4.45;;;10.30;90.80;;;;;;5091645;28;20028;-70
2021/03/19 11:18:18;;;;;;;3.25;2.95;;;10.30;89.90;;;;;;5091382;28;20082;-72
2021/03/19 11:20:47;;;;;;;3.30;3.00;;;10.20;89.70;;;;;;5090708;28;20410;-70
2021/03/19 11:23:34;;;;;;;4.60;3.72;;;10.30;90.20;;;;;;5093881;28;20016;-69
2021/03/19 11:26:30;;;;;;;3.65;2.80;;;10.20;88.60;;;;;;5095399;28;20070;-72
2021/03/19 11:29:17;;;;;;;6.60;3.83;;;9.90;87.50;;;;;;5095130;28;20024;-70
2021/03/19 11:32:12;;;;;;;7.43;4.03;;;9.80;88.20;;;;;;5094212;28;20541;-69
2021/03/19 11:34:44;;;;;;;5.93;3.83;;;10.10;88.20;;;;;;5083577;28;20040;-76
2021/03/19 11:37:10;;;;;;;3.70;3.22;;;10.30;85.90;;;;;;5092925;28;20031;-76
2021/03/19 11:39:56;;;;;;;5.00;2.92;;;10.60;85.30;;;;;;5086827;28;20024;-75
2021/03/19 11:42:28;;;;;;;6.00;3.90;;;10.50;86.50;;;;;;5093505;28;20099;-75
2021/03/19 11:45:00;;;;;;;3.87;3.37;;;10.40;87.00;;;;;;5095015;28;20027;-75
2021/03/19 11:47:32;;;;;;;4.13;3.72;;;10.30;89.40;;;;;;5095071;28;20043;-77
2021/03/19 11:50:26;;;;;;;3.58;3.13;;;10.30;89.40;;;;;;5097200;28;20032;-80
2021/03/19 11:52:55;;;;;;;11.30;3.47;;;10.00;88.90;;;;;;5096683;28;20130;-78
2021/03/19 11:55:26;;;;;;;4.78;4.22;;;10.20;88.40;;;;;;5096020;28;20037;-78
2021/03/19 11:57:52;;;;;;;3.97;3.67;;;10.30;87.00;;;;;;5095992;28;20024;-77
2021/03/19 12:00:19;;;;;;;4.53;3.55;;;10.50;86.50;;;;;;5096242;28;20035;-79
2021/03/19 12:02:48;;;;;;;4.22;3.40;;;10.80;85.80;;;;;;5096321;28;20020;-79
2021/03/19 12:05:14;;;;;;;5.63;4.38;;;10.60;86.90;;;;;;5094583;28;20471;-77
2021/03/19 12:07:40;;;;;;;6.68;3.22;;;10.50;87.50;;;;;;5094271;28;20028;-76
2021/03/19 12:10:08;;;;;;;4.53;4.10;;;10.50;87.20;;;;;;5086257;28;20064;-76
2021/03/19 12:12:34;;;;;;;3.08;2.78;;;10.50;84.10;;;;;;5105856;28;20020;-76
2021/03/19 12:15:00;;;;;;;7.53;3.95;;;10.50;85.80;;;;;;5114959;28;20539;-75
2021/03/19 12:17:26;;;;;;;4.38;3.47;;;10.50;84.60;;;;;;5096487;28;20073;-76
2021/03/19 12:19:52;;;;;;;4.05;3.10;;;10.50;87.20;;;;;;5073928;28;20480;-76
2021/03/19 12:22:20;;;;;;;2.67;2.47;;;10.50;84.80;;;;;;5073633;28;20064;-76
2021/03/19 12:24:46;;;;;;;5.20;4.53;;;10.30;80.30;;;;;;5074272;28;20050;-75
2021/03/19 12:27:13;;;;;;;2.75;2.38;;;10.50;80.10;;;;;;5074290;28;20387;-76
2021/03/19 12:29:39;;;;;;;5.22;3.75;;;10.60;78.30;;;;;;5089640;28;20089;-77
2021/03/19 12:32:06;;;;;;;3.60;2.97;;;10.70;80.10;;;;;;5093111;28;20024;-76
2021/03/19 12:34:33;;;;;;;5.75;3.35;;;10.80;83.10;;;;;;5090438;28;20038;-76
2021/03/19 12:36:59;;;;;;;6.95;3.13;;;10.90;80.70;;;;;;5084403;28;20020;-76
2021/03/19 12:39:24;;;;;;;5.57;2.53;;;10.80;81.70;;;;;;5093202;28;20372;-75
2021/03/19 12:41:50;;;;;;;3.25;2.95;;;10.70;81.70;;;;;;5093437;28;20031;-75
2021/03/19 12:44:16;;;;;;;5.03;2.58;;;10.60;80.70;;;;;;5093759;28;20038;-76
2021/03/19 12:46:43;;;;;;;3.83;3.28;;;10.60;81.30;;;;;;5093698;28;20055;-76
2021/03/19 12:49:08;;;;;;;2.85;2.65;;;10.90;81.30;;;;;;5082696;28;20108;-76
2021/03/19 12:51:35;;;;;;;3.25;2.97;;;11.10;82.20;;;;;;5073449;28;20112;-77
2021/03/19 12:54:01;;;;;;;7.00;3.13;;;11.10;79.40;;;;;;5091040;28;20028;-76
2021/03/19 12:56:27;;;;;;;3.17;2.72;;;11.00;79.80;;;;;;5092435;28;20051;-75
2021/03/19 12:58:52;;;;;;;3.45;3.15;;;11.00;81.60;;;;;;5093375;28;20494;-75
2021/03/19 13:01:19;;;;;;;2.72;2.53;;;11.10;81.60;;;;;;5092411;28;20417;-76
2021/03/19 13:03:46;;;;;;;5.90;3.28;;;11.20;79.50;;;;;;5095018;28;20021;-77
2021/03/19 13:06:12;;;;;;;5.07;2.95;;;11.10;79.90;;;;;;5093439;28;20040;-76
2021/03/19 13:08:38;;;;;;;2.85;2.55;;;11.30;77.70;;;;;;5093289;28;20063;-76
2021/03/19 13:11:04;;;;;;;2.97;2.78;;;11.50;79.00;;;;;;5092668;28;20028;-76
2021/03/19 13:13:29;;;;;;;2.80;2.60;;;11.50;79.10;;;;;;5090989;28;20073;-75
2021/03/19 13:15:56;;;;;;;3.50;3.10;;;11.60;76.80;;;;;;5088690;28;20027;-75
2021/03/19 13:18:22;;;;;;;3.10;2.65;;;11.50;77.50;;;;;;5098053;28;20020;-76
2021/03/19 13:20:48;;;;;;;3.45;2.88;;;11.40;75.60;;;;;;5092263;28;20058;-76
2021/03/19 13:23:14;;;;;;;2.70;2.47;;;11.40;72.50;;;;;;5092867;28;20060;-77
2021/03/19 13:25:42;;;;;;;5.10;2.63;;;11.50;73.40;;;;;;5089387;28;20034;-76
2021/03/19 13:28:09;;;;;;;2.92;2.50;;;11.60;75.00;;;;;;5091863;28;20026;-76
2021/03/19 13:30:36;;;;;;;3.83;2.75;;;11.80;72.10;;;;;;5087950;28;20115;-76
2021/03/19 13:33:05;;;;;;;2.45;2.25;;;11.80;73.70;;;;;;5093612;28;20596;-76